createdAt,value
2023-03-29T00:01:36.036Z,3.90
2023-03-29T00:04:38.328Z,4.40
2023-03-29T00:07:39.320Z,4.40
2023-03-29T00:10:41.264Z,5.00
2023-03-29T00:13:42.659Z,5.50
2023-03-29T00:16:46.013Z,6.50
2023-03-29T00:19:47.401Z,5.40
2023-03-29T00:22:48.297Z,4.10
2023-03-29T00:25:49.249Z,4.50
2023-03-29T00:28:50.134Z,4.60
2023-03-29T00:31:53.289Z,4.20
2023-03-29T00:34:56.068Z,4.80
2023-03-29T00:37:57.061Z,4.40
2023-03-29T00:40:58.751Z,4.60
2023-03-29T00:44:02.987Z,5.10
2023-03-29T00:47:03.956Z,3.60
2023-03-29T00:50:15.090Z,5.60
2023-03-29T00:53:37.860Z,4.80
2023-03-29T00:56:39.915Z,4.30
2023-03-29T00:59:42.156Z,4.90
2023-03-29T01:02:45.144Z,4.90
2023-03-29T01:05:48.168Z,5.00
2023-03-29T01:08:54.659Z,4.50
2023-03-29T01:11:58.366Z,3.90
2023-03-29T01:15:03.657Z,4.50
2023-03-29T01:18:05.815Z,6.00
2023-03-29T01:21:14.073Z,5.10
2023-03-29T01:24:29.966Z,5.00
2023-03-29T01:27:51.132Z,5.90
2023-03-29T01:31:11.445Z,5.80
2023-03-29T01:34:18.105Z,5.10
2023-03-29T01:37:30.451Z,5.30
2023-03-29T01:40:32.955Z,4.70
2023-03-29T01:43:40.494Z,5.20
2023-03-29T01:46:46.335Z,4.80
2023-03-29T01:50:07.575Z,4.50
2023-03-29T01:53:26.439Z,5.00
2023-03-29T01:56:28.540Z,5.30
2023-03-29T01:59:32.749Z,4.40
2023-03-29T02:02:34.102Z,9.70
2023-03-29T02:05:37.993Z,4.80
2023-03-29T02:08:40.076Z,5.20
2023-03-29T02:11:41.842Z,4.90
2023-03-29T02:14:43.374Z,6.30
2023-03-29T02:17:45.665Z,4.80
2023-03-29T02:20:48.577Z,4.30
2023-03-29T02:23:53.948Z,4.50
2023-03-29T02:26:55.177Z,8.30
2023-03-29T02:29:56.546Z,5.80
2023-03-29T02:33:08.880Z,6.00
2023-03-29T02:36:19.030Z,4.90
2023-03-29T02:39:20.706Z,7.20
2023-03-29T02:42:21.978Z,4.70
2023-03-29T02:45:24.662Z,5.80
2023-03-29T02:48:26.476Z,5.70
2023-03-29T02:51:31.164Z,5.90
2023-03-29T02:54:32.241Z,6.00
2023-03-29T02:57:34.892Z,5.40
2023-03-29T03:00:37.736Z,8.10
2023-03-29T03:03:39.558Z,4.60
2023-03-29T03:06:40.820Z,6.70
2023-03-29T03:09:43.849Z,4.30
2023-03-29T03:12:44.870Z,5.90
2023-03-29T03:15:48.448Z,6.80
2023-03-29T03:18:50.739Z,4.20
2023-03-29T03:21:51.656Z,4.80
2023-03-29T03:24:52.625Z,5.20
2023-03-29T03:27:53.565Z,4.80
2023-03-29T03:30:56.909Z,5.30
2023-03-29T03:34:34.087Z,4.20
2023-03-29T03:37:35.733Z,5.20
2023-03-29T03:40:36.968Z,3.90
2023-03-29T03:43:40.430Z,4.40
2023-03-29T03:46:41.373Z,5.40
2023-03-29T03:49:43.255Z,4.40
2023-03-29T03:52:44.570Z,4.00
2023-03-29T03:55:48.512Z,5.20
2023-03-29T03:58:56.143Z,5.50
2023-03-29T04:01:57.642Z,4.80
2023-03-29T04:05:02.523Z,6.00
2023-03-29T04:08:08.512Z,7.30
2023-03-29T04:11:42.029Z,4.70
2023-03-29T04:14:43.202Z,5.30
2023-03-29T04:17:50.201Z,4.40
2023-03-29T04:21:09.861Z,5.00
2023-03-29T04:24:12.055Z,4.70
2023-03-29T04:27:19.995Z,5.00
2023-03-29T04:30:21.576Z,4.80
2023-03-29T04:33:46.113Z,6.00
2023-03-29T04:36:49.532Z,7.40
2023-03-29T04:39:53.893Z,5.90
2023-03-29T04:42:55.253Z,4.40
2023-03-29T04:45:57.164Z,5.40
2023-03-29T04:49:36.592Z,5.70
2023-03-29T04:52:41.481Z,6.30
2023-03-29T04:55:42.738Z,5.70
2023-03-29T04:58:48.864Z,6.10
2023-03-29T05:01:49.940Z,5.20
2023-03-29T05:04:51.494Z,5.70
2023-03-29T05:07:54.227Z,5.10
2023-03-29T05:10:59.953Z,7.00
2023-03-29T05:14:02.688Z,5.60
2023-03-29T05:17:05.897Z,6.30
2023-03-29T05:20:09.549Z,7.10
2023-03-29T05:23:11.852Z,6.10
2023-03-29T05:26:41.610Z,6.80
2023-03-29T05:29:44.086Z,5.80
2023-03-29T05:32:59.674Z,6.10
2023-03-29T05:36:03.151Z,7.00
2023-03-29T05:39:05.766Z,5.90
2023-03-29T05:42:07.102Z,7.20
2023-03-29T05:45:22.184Z,6.60
2023-03-29T05:48:25.217Z,7.40
2023-03-29T05:51:26.665Z,5.40
2023-03-29T05:54:28.950Z,4.70
2023-03-29T05:57:30.593Z,5.60
2023-03-29T06:00:36.136Z,5.00
2023-03-29T06:03:46.689Z,5.40
2023-03-29T06:06:48.021Z,6.50
2023-03-29T06:09:49.042Z,5.70
2023-03-29T06:12:52.185Z,6.60
2023-03-29T06:15:55.077Z,5.30
2023-03-29T06:18:56.106Z,7.30
2023-03-29T06:21:57.323Z,10.40
2023-03-29T06:25:00.269Z,16.10
2023-03-29T06:28:03.423Z,12.20
2023-03-29T06:31:04.852Z,15.20
2023-03-29T06:34:09.786Z,15.00
2023-03-29T06:37:31.898Z,15.00
2023-03-29T06:40:41.437Z,9.20
2023-03-29T06:43:42.734Z,6.10
2023-03-29T06:46:49.377Z,6.60
2023-03-29T06:49:50.491Z,6.90
2023-03-29T06:53:02.402Z,5.80
2023-03-29T06:56:08.294Z,7.40
2023-03-29T06:59:12.907Z,5.80
2023-03-29T07:02:23.241Z,6.70
2023-03-29T07:05:45.214Z,6.20
2023-03-29T07:08:51.562Z,5.80
2023-03-29T07:12:02.412Z,6.50
2023-03-29T07:15:03.988Z,6.70
2023-03-29T07:18:23.400Z,5.50
2023-03-29T07:21:24.370Z,6.80
2023-03-29T07:24:26.240Z,6.60
2023-03-29T07:27:27.631Z,7.00
2023-03-29T07:30:32.028Z,6.60
2023-03-29T07:33:56.463Z,6.40
2023-03-29T07:36:59.665Z,7.60
2023-03-29T07:40:02.809Z,5.60
2023-03-29T07:43:13.451Z,6.60
2023-03-29T07:46:15.166Z,8.90
2023-03-29T07:49:20.342Z,7.00
2023-03-29T07:52:22.749Z,6.70
2023-03-29T07:55:25.045Z,7.10
2023-03-29T07:58:48.787Z,7.00
2023-03-29T08:01:50.041Z,7.30
2023-03-29T08:05:04.373Z,9.60
2023-03-29T08:08:23.367Z,9.80
2023-03-29T08:11:34.802Z,7.10
2023-03-29T08:14:38.549Z,6.90
2023-03-29T08:17:50.186Z,5.70
2023-03-29T08:20:51.928Z,7.20
2023-03-29T08:23:53.260Z,7.30
2023-03-29T08:27:20.663Z,7.50
2023-03-29T08:30:21.775Z,7.00
2023-03-29T08:33:23.636Z,7.60
2023-03-29T08:36:53.151Z,7.50
2023-03-29T08:40:00.753Z,7.60
2023-03-29T08:43:38.995Z,6.70
2023-03-29T08:46:56.320Z,8.60
2023-03-29T08:50:04.410Z,4.80
2023-03-29T08:53:18.813Z,8.50
2023-03-29T08:56:36.660Z,6.50
2023-03-29T09:00:01.293Z,7.70
2023-03-29T09:03:21.684Z,8.80
2023-03-29T09:06:22.787Z,6.60
2023-03-29T09:09:32.752Z,7.10
2023-03-29T09:12:43.915Z,6.90
2023-03-29T09:15:52.245Z,8.10
2023-03-29T09:19:45.956Z,7.90
2023-03-29T09:22:58.109Z,7.00
2023-03-29T09:26:11.842Z,7.90
2023-03-29T09:29:54.955Z,8.60
2023-03-29T09:33:02.408Z,7.50
2023-03-29T09:36:18.144Z,6.10
2023-03-29T09:39:21.560Z,8.00
2023-03-29T09:42:27.416Z,9.70
2023-03-29T09:45:28.429Z,7.70
2023-03-29T09:48:31.536Z,7.60
2023-03-29T09:51:33.808Z,7.60
2023-03-29T09:54:35.269Z,7.10
2023-03-29T09:58:00.992Z,7.60
2023-03-29T10:01:08.619Z,7.70
2023-03-29T10:04:10.779Z,8.30
2023-03-29T10:07:17.513Z,8.70
2023-03-29T10:10:22.192Z,8.30
2023-03-29T10:13:32.432Z,6.70
2023-03-29T10:16:37.468Z,9.00
2023-03-29T10:19:49.389Z,10.20
2023-03-29T10:22:58.508Z,8.30
2023-03-29T10:26:02.110Z,7.30
2023-03-29T10:29:05.563Z,9.00
2023-03-29T10:32:33.697Z,8.90
2023-03-29T10:35:42.236Z,7.10
2023-03-29T10:38:43.579Z,8.00
2023-03-29T10:41:44.689Z,8.30
2023-03-29T10:44:57.356Z,7.60
2023-03-29T10:47:58.539Z,6.00
2023-03-29T10:51:01.128Z,13.70
2023-03-29T10:54:03.088Z,9.60
2023-03-29T10:57:07.940Z,7.40
2023-03-29T11:00:16.082Z,10.60
2023-03-29T11:03:27.336Z,7.80
2023-03-29T11:06:36.226Z,9.20
2023-03-29T11:09:56.472Z,8.80
2023-03-29T11:13:00.610Z,10.00
2023-03-29T11:16:34.157Z,8.00
2023-03-29T11:19:44.954Z,10.80
2023-03-29T11:23:03.180Z,6.70
2023-03-29T11:26:24.290Z,7.20
2023-03-29T11:29:43.916Z,7.60
2023-03-29T11:32:56.142Z,9.60
2023-03-29T11:36:08.652Z,8.20
2023-03-29T11:39:20.869Z,13.00
2023-03-29T11:42:28.766Z,8.90
2023-03-29T11:45:35.015Z,7.70
2023-03-29T11:48:43.496Z,12.00
2023-03-29T11:51:50.248Z,9.40
2023-03-29T11:55:09.362Z,7.50
2023-03-29T11:58:39.033Z,8.60
2023-03-29T12:01:45.729Z,6.60
2023-03-29T12:04:51.153Z,8.10
2023-03-29T12:08:06.796Z,6.30
2023-03-29T12:11:22.318Z,7.60
2023-03-29T12:14:46.949Z,7.90
2023-03-29T12:18:02.283Z,10.20
2023-03-29T12:21:10.334Z,6.40
2023-03-29T12:24:15.349Z,11.50
2023-03-29T12:27:22.637Z,8.20
2023-03-29T12:30:47.745Z,8.40
2023-03-29T12:34:12.556Z,10.20
2023-03-29T12:38:10.414Z,5.70
2023-03-29T12:41:35.607Z,5.50
2023-03-29T12:44:59.302Z,4.80
2023-03-29T12:48:06.877Z,16.00
2023-03-29T12:51:12.922Z,10.60
2023-03-29T12:54:16.869Z,6.80
2023-03-29T12:57:21.207Z,5.70
2023-03-29T13:00:26.914Z,9.70
2023-03-29T13:03:35.232Z,6.70
2023-03-29T13:06:46.163Z,6.30
2023-03-29T13:09:55.540Z,5.20
2023-03-29T13:12:57.328Z,5.20
2023-03-29T13:16:18.257Z,7.70
2023-03-29T13:19:23.031Z,16.00
2023-03-29T13:22:39.270Z,9.10
2023-03-29T13:26:05.640Z,6.90
2023-03-29T13:29:26.761Z,8.60
2023-03-29T13:32:42.925Z,4.70
2023-03-29T13:39:15.563Z,7.50
2023-03-29T13:42:40.187Z,8.90
2023-03-29T13:45:41.044Z,8.20
2023-03-29T13:48:41.979Z,5.70
2023-03-29T13:52:01.663Z,6.90
2023-03-29T13:55:07.922Z,8.60
2023-03-29T13:58:34.593Z,5.80
2023-03-29T14:01:42.792Z,3.90
2023-03-29T14:04:46.388Z,17.70
2023-03-29T14:07:50.539Z,6.20
2023-03-29T14:10:52.311Z,7.50
2023-03-29T14:13:55.518Z,4.30
2023-03-29T14:16:56.583Z,7.90
2023-03-29T15:34:28.988Z,7.10
2023-03-29T15:37:32.126Z,5.60
2023-03-29T15:40:37.400Z,7.20
2023-03-29T15:43:52.110Z,9.20
2023-03-29T15:46:56.949Z,7.10
2023-03-29T15:49:57.900Z,6.10
2023-03-29T15:53:05.373Z,6.60
2023-03-29T15:56:17.516Z,10.90
2023-03-29T15:59:18.557Z,7.10
2023-03-29T16:02:22.717Z,8.60
2023-03-29T16:05:23.824Z,9.30
2023-03-29T16:08:25.079Z,7.60
2023-03-29T16:11:27.680Z,8.60
2023-03-29T16:14:30.780Z,6.70
2023-03-29T16:17:33.175Z,7.20
2023-03-29T16:20:34.286Z,8.00
2023-03-29T16:23:35.245Z,5.50
2023-03-29T16:26:36.319Z,7.80
2023-03-29T16:29:37.427Z,6.20
2023-03-29T16:32:38.405Z,7.50
2023-03-29T16:35:39.746Z,12.90
2023-03-29T16:38:40.955Z,8.30
2023-03-29T16:41:42.466Z,9.90
2023-03-29T16:44:44.403Z,10.00
2023-03-29T16:47:45.461Z,7.70
2023-03-29T16:50:49.485Z,11.20
2023-03-29T16:53:53.786Z,6.60
2023-03-29T16:56:54.817Z,14.90
2023-03-29T16:59:56.198Z,7.30
2023-03-29T17:03:00.873Z,9.70
2023-03-29T17:06:02.288Z,7.70
2023-03-29T17:09:04.447Z,5.70
2023-03-29T17:12:05.977Z,9.90
2023-03-29T17:15:08.570Z,7.30
2023-03-29T17:18:09.584Z,14.30
2023-03-29T17:21:10.831Z,8.20
2023-03-29T17:24:11.742Z,11.20
2023-03-29T17:27:12.646Z,8.40
2023-03-29T17:30:14.034Z,7.30
2023-03-29T17:33:14.995Z,8.80
2023-03-29T17:36:16.123Z,7.80
2023-03-29T17:39:17.968Z,6.70
2023-03-29T17:42:19.137Z,7.00
2023-03-29T17:45:20.293Z,8.50
2023-03-29T17:48:22.876Z,7.80
2023-03-29T17:51:24.316Z,6.70
2023-03-29T17:54:25.421Z,6.40
2023-03-29T17:57:26.660Z,8.00
2023-03-29T18:00:28.582Z,8.90
2023-03-29T18:03:29.536Z,11.20
2023-03-29T18:06:30.521Z,8.50
2023-03-29T18:09:31.572Z,8.80
2023-03-29T18:12:32.532Z,5.70
2023-03-29T18:15:33.469Z,13.20
2023-03-29T18:18:34.661Z,9.60
2023-03-29T18:21:36.302Z,5.90
2023-03-29T18:24:37.213Z,6.40
2023-03-29T18:27:38.847Z,10.00
2023-03-29T18:30:39.857Z,10.30
2023-03-29T18:33:41.145Z,7.70
2023-03-29T18:36:42.401Z,8.40
2023-03-29T18:39:44.972Z,8.90
2023-03-29T18:42:46.131Z,8.60
2023-03-29T18:45:47.112Z,9.50
2023-03-29T18:48:48.428Z,9.00
2023-03-29T18:51:49.826Z,5.60
2023-03-29T18:54:51.274Z,8.20
2023-03-29T18:57:52.176Z,9.00
2023-03-29T19:00:54.074Z,7.50
2023-03-29T19:03:55.341Z,9.30
2023-03-29T19:07:00.813Z,9.00
2023-03-29T19:10:12.804Z,12.00
2023-03-29T19:13:14.130Z,9.40
2023-03-29T19:16:15.244Z,8.90
2023-03-29T19:19:18.079Z,16.70
2023-03-29T19:22:39.776Z,8.30
2023-03-29T19:25:42.776Z,7.70
2023-03-29T19:28:45.390Z,11.30
2023-03-29T19:31:46.615Z,8.50
2023-03-29T19:34:47.736Z,8.20
2023-03-29T19:37:50.597Z,10.70
2023-03-29T19:40:52.370Z,9.10
2023-03-29T19:43:54.622Z,9.60
2023-03-29T19:46:56.027Z,10.00
2023-03-29T19:49:59.260Z,10.40
2023-03-29T19:53:03.576Z,11.20
2023-03-29T19:56:06.434Z,17.80
2023-03-29T19:59:15.214Z,23.10
2023-03-29T20:02:26.119Z,15.50
2023-03-29T20:05:31.220Z,11.90
2023-03-29T20:08:36.994Z,11.20
2023-03-29T20:11:46.250Z,11.40
2023-03-29T20:15:16.171Z,9.50
2023-03-29T20:18:27.762Z,12.30
2023-03-29T20:21:34.105Z,8.90
2023-03-29T20:24:39.615Z,9.90
2023-03-29T20:27:57.190Z,11.80
2023-03-29T20:31:18.285Z,10.90
2023-03-29T20:34:19.674Z,15.50
2023-03-29T20:37:25.253Z,9.80
2023-03-29T20:40:29.402Z,9.40
2023-03-29T20:43:36.723Z,13.00
2023-03-29T20:47:04.481Z,8.80
2023-03-29T20:50:08.121Z,8.80
2023-03-29T20:53:09.385Z,17.30
2023-03-29T20:56:12.469Z,9.40
2023-03-29T20:59:24.857Z,9.40
2023-03-29T21:02:26.777Z,9.60
2023-03-29T21:05:32.422Z,10.00
2023-03-29T21:08:33.520Z,8.80
2023-03-29T21:11:42.081Z,10.50
2023-03-29T21:14:43.991Z,10.80
2023-03-29T21:17:45.383Z,9.20
2023-03-29T21:20:46.855Z,8.50
2023-03-29T21:23:48.064Z,8.60
2023-03-29T21:26:49.005Z,11.80
2023-03-29T21:29:50.019Z,9.40
2023-03-29T21:32:51.127Z,9.60
2023-03-29T21:35:52.346Z,10.60
2023-03-29T21:38:53.534Z,11.50
2023-03-29T21:41:54.500Z,13.40
2023-03-29T21:44:55.549Z,8.20
2023-03-29T21:47:56.582Z,10.20
2023-03-29T21:50:57.879Z,10.00
2023-03-29T21:53:58.849Z,9.50
2023-03-29T21:57:00.003Z,13.30
2023-03-29T22:00:01.011Z,11.20
2023-03-29T22:03:02.164Z,14.10
2023-03-29T22:06:13.064Z,14.10
2023-03-29T22:09:14.801Z,24.40
2023-03-29T22:12:16.067Z,22.80
2023-03-29T22:15:19.949Z,15.60
2023-03-29T22:18:21.053Z,16.80
2023-03-29T22:21:24.214Z,17.90
2023-03-29T22:24:25.225Z,12.40
2023-03-29T22:27:29.081Z,13.50
2023-03-29T22:30:30.349Z,12.60
2023-03-29T22:33:33.105Z,12.70
2023-03-29T22:36:35.411Z,12.70
2023-03-29T22:39:36.873Z,11.90
2023-03-29T22:42:38.020Z,11.80
2023-03-29T22:45:41.992Z,12.20
2023-03-29T22:48:43.074Z,13.50
2023-03-29T22:51:44.093Z,13.90
2023-03-29T22:54:45.209Z,12.50
2023-03-29T22:57:46.198Z,14.80
2023-03-29T23:00:47.661Z,11.20
2023-03-29T23:03:48.696Z,9.00
2023-03-29T23:06:49.899Z,12.00
2023-03-29T23:09:51.182Z,10.70
2023-03-29T23:12:53.059Z,8.90
2023-03-29T23:15:58.220Z,9.70
2023-03-29T23:18:59.156Z,10.40
2023-03-29T23:22:00.464Z,9.80
2023-03-29T23:25:01.641Z,9.70
2023-03-29T23:28:02.982Z,8.20
2023-03-29T23:31:09.080Z,8.70
2023-03-29T23:34:10.368Z,11.20
2023-03-29T23:37:11.511Z,7.40
2023-03-29T23:40:13.656Z,9.90
2023-03-29T23:43:16.319Z,10.00
2023-03-29T23:46:18.152Z,8.30
2023-03-29T23:49:22.154Z,8.80
2023-03-29T23:52:23.272Z,10.40
2023-03-29T23:55:24.388Z,9.70
2023-03-29T23:58:29.486Z,11.10
